Thunder radar more information blitzortung!


Radar de pluja more information rain snow radar


Visita la nostra xarxa de llocs de meteo:

Template documentation
and downloads

And another site



No particular awareness of the weather is required.    There are no Weather-warnings

Pagina Historial Weather Underground text

Diari Resum Setembre 4, 2017 Unitats:  Imperial    Mètric   Tant
« Previous Dia
SegĂźent Dia »
Diari Setmana Mensual Anual Personalitzada
  Maxima: Minima: Media:
Temperatura: 81.3 °F 64.4 °F 74.1 °F
Punt de rosada: 66.4 °F 58.5 °F 61.7 °F
Humitat: 91 % 52 % 66 %
Wind Speed: 13.8 mph 0 mph 4.5 mph
RĂ fegues de vent: 13.8 mph - -
Vent:- - East
Pression baro: 30.1 in 29.8 in -
Precipitacions: 0 in    
Historical Graphs
 
 
Dades de taula per Setembre 4, 2017
Temps Temperatura Punt de rosada Pression baro Vent Wind Speed RĂ fegues de vent Humitat Rainfall Rate (Hourly)
00:00 65.7 °F 61.7 °F 29.9 in Calm   2 mph 87 % 0 in
00:01 68.5 °F 59.9 °F 29.9 in ENE 1.6 mph 1.6 mph 74 % 0 in
00:06 68.5 °F 59.9 °F 29.9 in NE 2.4 mph 2.4 mph 74 % 0 in
00:10 65.7 °F 62.1 °F 29.9 in Calm   2 mph 88 % 0 in
00:20 65.5 °F 61.9 °F 29.9 in Calm     88 % 0 in
00:30 65.5 °F 61.9 °F 29.9 in NE 1 mph 1 mph 88 % 0 in
00:40 65.3 °F 61.7 °F 29.9 in Calm   2 mph 88 % 0 in
00:50 65.3 °F 61.7 °F 29.9 in SW 2 mph 2 mph 88 % 0 in
01:00 65.3 °F 62.1 °F 29.9 in Calm   1 mph 89 % 0 in
01:10 65.5 °F 62.2 °F 29.9 in Calm   1 mph 89 % 0 in
01:20 65.3 °F 61.7 °F 29.9 in North 1 mph 2 mph 88 % 0 in
01:30 65.1 °F 61.9 °F 29.9 in WSW 1 mph 2 mph 89 % 0 in
01:40 65.3 °F 62.1 °F 29.8 in WSW 1 mph   89 % 0 in
01:50 65.3 °F 62.2 °F 29.8 in Calm   1 mph 90 % 0 in
02:00 65.5 °F 62.4 °F 29.9 in WNW 1 mph 2 mph 90 % 0 in
02:10 65.3 °F 62.2 °F 29.9 in NE 1 mph 2 mph 90 % 0 in
02:20 65.3 °F 62.1 °F 29.9 in NNW 1 mph 2 mph 89 % 0 in
02:30 65.1 °F 62.1 °F 29.9 in Calm     90 % 0 in
02:40 65.1 °F 62.1 °F 29.9 in NNW 1 mph 2 mph 90 % 0 in
02:50 65.3 °F 62.6 °F 29.9 in Calm   2 mph 91 % 0 in
03:00 65.5 °F 62.8 °F 29.9 in ENE 1 mph 2 mph 91 % 0 in
03:10 65.7 °F 63 °F 29.9 in Calm     91 % 0 in
03:20 65.8 °F 63.1 °F 29.9 in ENE 1 mph 1 mph 91 % 0 in
03:30 66.2 °F 63.1 °F 29.9 in NE 1 mph 1 mph 90 % 0 in
03:40 66.2 °F 63.1 °F 29.9 in Calm   4 mph 90 % 0 in
03:50 66.7 °F 64 °F 29.9 in Calm   2 mph 91 % 0 in
04:00 66.7 °F 63.7 °F 29.9 in NNE 1 mph 3 mph 90 % 0 in
04:10 66.9 °F 63.9 °F 29.9 in NE 1 mph 2 mph 90 % 0 in
04:20 67.3 °F 64.2 °F 29.9 in Calm   2 mph 90 % 0 in
04:30 67.5 °F 64.4 °F 29.9 in Calm   2 mph 90 % 0 in
04:40 68.7 °F 65.3 °F 29.9 in Calm   2 mph 89 % 0 in
04:50 69.4 °F 65.7 °F 29.9 in ENE 2 mph 4 mph 88 % 0 in
05:00 69.4 °F 65.1 °F 29.9 in NE 2 mph 3 mph 86 % 0 in
05:10 70.9 °F 65.5 °F 29.9 in NE 2 mph 3 mph 83 % 0 in
05:20 72.1 °F 66.4 °F 29.9 in North 1 mph 4 mph 82 % 0 in
05:30 72.3 °F 65.1 °F 29.9 in NNE 5 mph 5 mph 78 % 0 in
05:40 72.9 °F 65.1 °F 30 in NE 2 mph 4 mph 77 % 0 in
05:50 73.4 °F 64.9 °F 30 in NE 3 mph 5 mph 75 % 0 in
05:55 73.8 °F 65.3 °F 30 in ENE 2 mph 5 mph 75 % 0 in
10:58 73.9 °F 65.5 °F 30 in East 2.4 mph 2.4 mph 75 % 0 in
10:59 73.9 °F 65.5 °F 30 in East 2.9 mph 2.9 mph 75 % 0 in
11:00 74.3 °F 65.8 °F 30 in ESE 3.5 mph 3.5 mph 75 % 0 in
11:05 74.3 °F 65.5 °F 30 in ESE 3.5 mph 3.5 mph 74 % 0 in
11:10 74.3 °F 65.1 °F 30 in East 3.6 mph 3.6 mph 73 % 0 in
11:15 74.7 °F 65.5 °F 30 in NE 3.5 mph 3.5 mph 73 % 0 in
11:20 74.3 °F 63.9 °F 30 in ESE 4.6 mph 4.6 mph 70 % 0 in
11:25 75 °F 64.6 °F 30 in NE 3.5 mph 3.5 mph 70 % 0 in
11:30 75.7 °F 64.4 °F 30 in NNE 5.8 mph 5.8 mph 68 % 0 in
11:35 76.1 °F 63.9 °F 30 in East 3.8 mph 3.8 mph 66 % 0 in
11:40 75.7 °F 63.1 °F 30 in ESE 5.8 mph 5.8 mph 65 % 0 in
11:45 75.7 °F 63.1 °F 30 in East 3.5 mph 3.5 mph 65 % 0 in
11:50 76.3 °F 63.1 °F 30 in East 5.8 mph 5.8 mph 64 % 0 in
11:55 76.1 °F 63.5 °F 30 in NNE 4.9 mph 4.9 mph 65 % 0 in
12:00 76.1 °F 63 °F 30 in ESE 5.8 mph 5.8 mph 64 % 0 in
12:05 76.1 °F 63 °F 30 in ESE 3.5 mph 3.5 mph 64 % 0 in
12:10 76.6 °F 63.1 °F 30 in South 4.6 mph 4.6 mph 63 % 0 in
12:15 76.8 °F 62.8 °F 30 in SE 5.9 mph 5.9 mph 62 % 0 in
12:20 76.6 °F 63.1 °F 30 in ESE 6 mph 6 mph 63 % 0 in
12:25 77 °F 62.4 °F 30 in ESE 5.8 mph 5.8 mph 61 % 0 in
12:30 77 °F 62.1 °F 30 in ENE 5.8 mph 5.8 mph 60 % 0 in
12:35 78.6 °F 63.7 °F 30 in ESE 6.2 mph 6.2 mph 60 % 0 in
12:40 78.3 °F 63.7 °F 30 in ENE 3.5 mph 3.5 mph 61 % 0 in
12:45 78.3 °F 62.8 °F 30 in East 8.1 mph 8.1 mph 59 % 0 in
12:50 78.4 °F 61.9 °F 30 in ESE 8.1 mph 8.1 mph 57 % 0 in
12:55 78.3 °F 62.2 °F 30 in SSW 5.8 mph 5.8 mph 58 % 0 in
13:00 78.3 °F 62.2 °F 30 in ESE 8.5 mph 8.5 mph 58 % 0 in
13:05 78.3 °F 62.2 °F 30 in South 3.5 mph 3.5 mph 58 % 0 in
13:10 78.4 °F 62.4 °F 30 in ESE 5.8 mph 5.8 mph 58 % 0 in
13:15 79.2 °F 62.6 °F 30 in ESE 6.9 mph 6.9 mph 57 % 0 in
13:20 78.8 °F 62.2 °F 30 in South 2.3 mph 2.3 mph 57 % 0 in
13:25 79.5 °F 63.3 °F 30 in ENE 8.1 mph 8.1 mph 58 % 0 in
13:30 79.2 °F 62.6 °F 30 in ESE 4.3 mph 4.3 mph 57 % 0 in
13:35 78.6 °F 62.1 °F 30 in ENE 8.1 mph 8.1 mph 57 % 0 in
13:40 78.3 °F 61.9 °F 30 in ESE 5.8 mph 5.8 mph 57 % 0 in
13:45 78.3 °F 62.2 °F 30 in ESE 8.1 mph 8.1 mph 58 % 0 in
13:50 78.4 °F 62.4 °F 30 in ENE 7.6 mph 7.6 mph 58 % 0 in
13:55 79 °F 62.4 °F 30 in ESE 9.2 mph 9.2 mph 57 % 0 in
14:00 78.3 °F 61.3 °F 30 in ESE 7.6 mph 7.6 mph 56 % 0 in
14:05 78.8 °F 62.2 °F 30 in ESE 4 mph 4 mph 57 % 0 in
14:10 78.3 °F 61.9 °F 30 in SE 11.5 mph 11.5 mph 57 % 0 in
14:15 79 °F 62.4 °F 30 in SSE 4.6 mph 4.6 mph 57 % 0 in
14:20 79.2 °F 62.1 °F 30 in SE 4.6 mph 4.6 mph 56 % 0 in
14:25 79.3 °F 62.8 °F 30 in SSE 6.9 mph 6.9 mph 57 % 0 in
14:30 80.1 °F 63 °F 30 in West 6.9 mph 6.9 mph 56 % 0 in
14:35 81 °F 63.3 °F 30 in South 6.9 mph 6.9 mph 55 % 0 in
14:40 81.3 °F 63.1 °F 30 in South 3.6 mph 3.6 mph 54 % 0 in
14:45 81.3 °F 63.1 °F 30 in South 6.9 mph 6.9 mph 54 % 0 in
14:50 81.1 °F 63 °F 30 in ESE 5.6 mph 5.6 mph 54 % 0 in
14:55 81 °F 62.2 °F 30 in SW 6.9 mph 6.9 mph 53 % 0 in
15:00 80.4 °F 62.2 °F 30 in East 13.8 mph 13.8 mph 54 % 0 in
15:05 80.8 °F 62.1 °F 30 in SSW 5.8 mph 5.9 mph 53 % 0 in
15:10 81 °F 61.7 °F 30 in SSE 8.1 mph 8.1 mph 52 % 0 in
15:15 80.2 °F 61.5 °F 30 in ESE 8.1 mph 8.1 mph 53 % 0 in
15:20 79.9 °F 61.2 °F 30 in ESE 11.5 mph 11.5 mph 53 % 0 in
15:25 79 °F 60.4 °F 30 in ESE 9.2 mph 9.2 mph 53 % 0 in
15:30 78.6 °F 60.1 °F 30 in ESE 9.2 mph 9.2 mph 53 % 0 in
15:32 78.6 °F 60.6 °F 30 in ESE 8.1 mph 8.1 mph 54 % 0 in
15:37 78.6 °F 60.6 °F 30 in SE 5.8 mph 5.8 mph 54 % 0 in
15:42 78.8 °F 60.6 °F 30 in East 9.2 mph 9.2 mph 54 % 0 in
15:47 79.3 °F 61.2 °F 30 in ESE 6.9 mph 6.9 mph 54 % 0 in
15:52 79.7 °F 61.5 °F 30 in SE 6.4 mph 6.4 mph 54 % 0 in
15:57 79.5 °F 61.3 °F 30 in ESE 6 mph 6 mph 54 % 0 in
16:02 79.5 °F 61.3 °F 30 in SSE 5.8 mph 5.8 mph 54 % 0 in
16:07 79.5 °F 61.3 °F 30 in SSE 8.1 mph 8.1 mph 54 % 0 in
16:12 79.7 °F 61.5 °F 30 in East 8.1 mph 8.1 mph 54 % 0 in
16:17 79.7 °F 61.5 °F 30 in SE 5.8 mph 5.8 mph 54 % 0 in
16:22 79.2 °F 61.2 °F 30 in SSE 10.4 mph 10.4 mph 54 % 0 in
16:24 79.3 °F 61.2 °F 30 in ESE 5.8 mph 5.8 mph 54 % 0 in
16:29 79.5 °F 61.3 °F 30 in ESE 6.9 mph 6.9 mph 54 % 0 in
16:34 78.8 °F 60.6 °F 30 in NNE 9.2 mph 9.2 mph 54 % 0 in
16:39 78.6 °F 60.6 °F 30 in ESE 8.1 mph 8.1 mph 54 % 0 in
16:44 78.4 °F 61 °F 30 in ENE 6 mph 6 mph 55 % 0 in
16:49 79 °F 61.3 °F 30 in ESE 5.8 mph 5.8 mph 55 % 0 in
16:54 78.8 °F 61.3 °F 30 in East 5.8 mph 5.8 mph 55 % 0 in
16:59 78.8 °F 61.3 °F 30 in ENE 5.8 mph 5.8 mph 55 % 0 in
17:04 78.1 °F 60.6 °F 30 in ESE 11.2 mph 11.2 mph 55 % 0 in
17:09 78.1 °F 61.2 °F 30 in East 8.1 mph 8.1 mph 56 % 0 in
17:14 77.9 °F 61 °F 30 in ENE 5.8 mph 5.8 mph 56 % 0 in
17:19 78.4 °F 61.3 °F 30 in SSE 8.1 mph 8.1 mph 56 % 0 in
17:24 79 °F 61.3 °F 30 in South 6 mph 6 mph 55 % 0 in
17:29 79 °F 61.3 °F 30 in SE 9.2 mph 9.2 mph 55 % 0 in
17:34 78.6 °F 61.2 °F 30 in South 8.1 mph 8.1 mph 55 % 0 in
17:36 78.8 °F 61.3 °F 30 in ENE 7.1 mph 7.1 mph 55 % 0 in
17:41 79 °F 61.3 °F 30 in West 6.9 mph 6.9 mph 55 % 0 in
17:46 79.2 °F 61.5 °F 30 in SSE 8.7 mph 8.7 mph 55 % 0 in
17:51 78.4 °F 61 °F 30 in ENE 8.1 mph 8.1 mph 55 % 0 in
17:56 79.2 °F 61.5 °F 30 in ENE 4.6 mph 4.6 mph 55 % 0 in
18:01 78.1 °F 60.6 °F 30 in East 11.5 mph 11.5 mph 55 % 0 in
18:06 77.9 °F 61 °F 30 in East 8.1 mph 8.1 mph 56 % 0 in
18:11 77.4 °F 60.4 °F 30 in ESE 10.5 mph 10.5 mph 56 % 0 in
18:16 77 °F 61.2 °F 30 in ESE 10.4 mph 10.4 mph 58 % 0 in
18:21 76.8 °F 61.3 °F 30 in ENE 10.5 mph 10.5 mph 59 % 0 in
18:26 76.8 °F 61.3 °F 30 in SE 9.2 mph 9.2 mph 59 % 0 in
18:31 76.6 °F 61.7 °F 30 in SSE 8.1 mph 8.1 mph 60 % 0 in
18:36 76.5 °F 61.5 °F 30 in SSE 6.9 mph 6.9 mph 60 % 0 in
18:41 76.6 °F 61.7 °F 30 in ESE 9.2 mph 9.2 mph 60 % 0 in
18:46 76.6 °F 61.2 °F 30 in ESE 6.9 mph 6.9 mph 59 % 0 in
18:51 76.6 °F 61.2 °F 30 in ENE 11.5 mph 11.5 mph 59 % 0 in
18:56 76.1 °F 60.6 °F 30 in ESE 9.2 mph 9.2 mph 59 % 0 in
19:01 76.1 °F 61.2 °F 30 in ENE 5.8 mph 5.8 mph 60 % 0 in
19:06 75.7 °F 61 °F 30 in East 8.1 mph 8.1 mph 60 % 0 in
19:11 75.7 °F 61 °F 30 in NE 6.9 mph 6.9 mph 60 % 0 in
19:16 75.4 °F 60.4 °F 30 in ENE 8.1 mph 8.1 mph 60 % 0 in
19:21 75.2 °F 60.4 °F 30 in East 8.1 mph 8.1 mph 60 % 0 in
19:26 75.2 °F 60.8 °F 30 in East 8.1 mph 8.1 mph 61 % 0 in
19:31 75.2 °F 60.8 °F 30 in East 6.9 mph 6.9 mph 61 % 0 in
19:36 75 °F 61.2 °F 30 in ESE 5.9 mph 5.9 mph 62 % 0 in
19:41 74.8 °F 61 °F 30 in SE 8.1 mph 8.1 mph 62 % 0 in
19:46 74.7 °F 60.8 °F 30 in ESE 4.7 mph 4.7 mph 62 % 0 in
19:51 74.7 °F 60.8 °F 30 in SE 5.9 mph 5.9 mph 62 % 0 in
19:56 74.5 °F 61.2 °F 30 in ESE 5.8 mph 5.8 mph 63 % 0 in
20:01 74.3 °F 61 °F 30 in ESE 5.8 mph 5.8 mph 63 % 0 in
20:02 74.3 °F 61 °F 30 in East 4.7 mph 4.7 mph 63 % 0 in
20:07 74.1 °F 60.6 °F 30 in ESE 5.8 mph 5.8 mph 63 % 0 in
20:12 73.9 °F 60.4 °F 30.1 in ESE 5.8 mph 5.8 mph 63 % 0 in
20:17 73.9 °F 60.4 °F 30.1 in East 4 mph 4 mph 63 % 0 in
20:22 73.6 °F 60.6 °F 30.1 in ESE 4.6 mph 4.6 mph 64 % 0 in
20:27 73.4 °F 60.4 °F 30.1 in ENE 3.5 mph 3.5 mph 64 % 0 in
20:32 73.4 °F 60.4 °F 30.1 in East 3.5 mph 3.5 mph 64 % 0 in
20:37 73.2 °F 60.3 °F 30.1 in ESE 3.5 mph 3.5 mph 64 % 0 in
20:42 73 °F 60.1 °F 30.1 in ENE 4.7 mph 4.7 mph 64 % 0 in
20:47 72.9 °F 60.1 °F 30.1 in NE 2.3 mph 2.3 mph 64 % 0 in
20:52 72.7 °F 59.7 °F 30.1 in ENE 2.4 mph 2.4 mph 64 % 0 in
20:57 72.7 °F 60.3 °F 30.1 in ENE 3.5 mph 3.5 mph 65 % 0 in
21:02 72.5 °F 60.1 °F 30.1 in NNE 2.3 mph 2.3 mph 65 % 0 in
21:07 72.3 °F 59.9 °F 30 in ENE 4.6 mph 4.6 mph 65 % 0 in
21:12 72.3 °F 59.9 °F 30 in ENE 2.6 mph 2.6 mph 65 % 0 in
21:17 72.1 °F 59.7 °F 30 in ENE 3.5 mph 3.5 mph 65 % 0 in
21:22 72.1 °F 59.7 °F 30.1 in NE 4.6 mph 4.6 mph 65 % 0 in
21:27 72 °F 60.1 °F 30.1 in NNE 2.4 mph 2.4 mph 66 % 0 in
21:32 71.8 °F 59.7 °F 30.1 in East 3.5 mph 3.5 mph 66 % 0 in
21:37 71.6 °F 59.5 °F 30.1 in ESE 3.5 mph 3.5 mph 66 % 0 in
21:42 71.6 °F 59.5 °F 30.1 in NNE 3.5 mph 3.5 mph 66 % 0 in
21:47 71.6 °F 59.5 °F 30.1 in ENE 2.6 mph 2.6 mph 66 % 0 in
21:52 71.6 °F 59.5 °F 30.1 in NE 3.1 mph 3.1 mph 66 % 0 in
21:57 71.4 °F 59.9 °F 30.1 in NE 2.4 mph 2.4 mph 67 % 0 in
22:02 71.4 °F 59.9 °F 30.1 in NE 2.3 mph 2.3 mph 67 % 0 in
22:07 71.4 °F 60.3 °F 30.1 in NNE 2.9 mph 2.9 mph 68 % 0 in
22:12 71.4 °F 60.3 °F 30.1 in NE 2.3 mph 2.3 mph 68 % 0 in
22:17 71.2 °F 60.1 °F 30.1 in ENE 2.3 mph 2.3 mph 68 % 0 in
22:22 71.1 °F 60.1 °F 30.1 in NNE 1.2 mph   68 % 0 in
22:27 71.1 °F 60.1 °F 30.1 in NNE 1.2 mph 1.2 mph 68 % 0 in
22:32 70.9 °F 60.3 °F 30.1 in NNE 2.3 mph 2.3 mph 69 % 0 in
22:37 70.9 °F 60.3 °F 30.1 in Calm     69 % 0 in
22:42 70.7 °F 60.1 °F 30.1 in NNE 1.2 mph   69 % 0 in
22:47 70.5 °F 59.9 °F 30.1 in NNE 2.3 mph   69 % 0 in
22:52 70.5 °F 59.9 °F 30.1 in NNE 1.2 mph   69 % 0 in
22:57 70.3 °F 59.7 °F 30.1 in Calm     69 % 0 in
23:02 70.2 °F 59.9 °F 30.1 in North 1.2 mph   70 % 0 in
23:07 70 °F 59.7 °F 30.1 in Calm     70 % 0 in
23:12 69.8 °F 59.5 °F 30.1 in NNE 1.2 mph 1.2 mph 70 % 0 in
23:17 69.6 °F 59.4 °F 30.1 in Calm     70 % 0 in
23:20 64.6 °F 58.6 °F 30.1 in Calm     81 % 0 in
23:22 69.4 °F 59.5 °F 30.1 in Calm     71 % 0 in
23:27 69.4 °F 59.5 °F 30.1 in NNE 1.2 mph   71 % 0 in
23:30 64.6 °F 58.6 °F 30.1 in Calm     81 % 0 in
23:32 69.3 °F 59.5 °F 30.1 in Calm     71 % 0 in
23:37 69.1 °F 59.4 °F 30.1 in Calm     71 % 0 in
23:40 64.4 °F 58.5 °F 30.1 in Calm     81 % 0 in
23:42 68.9 °F 59.2 °F 30.1 in North 1.2 mph 1.2 mph 71 % 0 in
23:47 68.9 °F 59.2 °F 30.1 in Calm     71 % 0 in
23:52 68.9 °F 59.2 °F 30.1 in Calm     71 % 0 in
23:57 68.7 °F 59.4 °F 30.1 in Calm     72 % 0 in
Meteo Sesrovires
Elogis d' Weather Underground - 3.5 mb

Guio original per  Jim McMurry - jmcmurry@mwt.net Adaptat per a la plantilla per  Wim van der Kuil - Leuven-Template.eu

Trobareu la nostra informacio del temps tambe a:

Weather Underground

AWEKAS